sensor_id;sensor_type;location;lat;lon;timestamp;pressure;altitude;pressure_sealevel;temperature;humidity
83763;BME280;73753;53.724;0.040;2024-01-27T00:00:02;103100;;;4.50174;100.0
83763;BME280;73753;53.724;0.040;2024-01-27T00:01:04;103100;;;4.46436;100.0
83763;BME280;73753;53.724;0.040;2024-01-27T00:02:05;103100;;;4.48748;100.0
83763;BME280;73753;53.724;0.040;2024-01-27T00:03:07;103100;;;4.48907;100.0
83763;BME280;73753;53.724;0.040;2024-01-27T00:04:08;103100;;;4.48495;100.0
83763;BME280;73753;53.724;0.040;2024-01-27T00:05:10;103100;;;4.45866;100.0
83763;BME280;73753;53.724;0.040;2024-01-27T00:06:12;103100;;;4.44568;100.0
83763;BME280;73753;53.724;0.040;2024-01-27T00:07:13;103100;;;4.48242;100.0
83763;BME280;73753;53.724;0.040;2024-01-27T00:08:15;103100;;;4.48843;100.0
83763;BME280;73753;53.724;0.040;2024-01-27T00:09:16;103100;;;4.49635;100.0
83763;BME280;73753;53.724;0.040;2024-01-27T00:10:18;103100;;;4.4916;100.0
83763;BME280;73753;53.724;0.040;2024-01-27T00:11:19;103100;;;4.50427;100.0
83763;BME280;73753;53.724;0.040;2024-01-27T00:12:21;103100;;;4.50554;100.0
83763;BME280;73753;53.724;0.040;2024-01-27T00:13:23;103100;;;4.51345;100.0
83763;BME280;73753;53.724;0.040;2024-01-27T00:14:24;103100;;;4.52327;100.0
83763;BME280;73753;53.724;0.040;2024-01-27T00:15:26;103100;;;4.50174;100.0
83763;BME280;73753;53.724;0.040;2024-01-27T00:16:27;103100;;;4.48907;100.0
83763;BME280;73753;53.724;0.040;2024-01-27T00:17:29;103100;;;4.40102;100.0
83763;BME280;73753;53.724;0.040;2024-01-27T00:18:31;103100;;;4.38265;100.0
83763;BME280;73753;53.724;0.040;2024-01-27T00:19:32;103100;;;4.42097;100.0
83763;BME280;73753;53.724;0.040;2024-01-27T00:20:34;103100;;;4.42541;100.0
83763;BME280;73753;53.724;0.040;2024-01-27T00:21:35;103100;;;4.43681;100.0
83763;BME280;73753;53.724;0.040;2024-01-27T00:22:37;103100;;;4.40704;100.0
83763;BME280;73753;53.724;0.040;2024-01-27T00:23:38;103100;;;4.38487;100.0
83763;BME280;73753;53.724;0.040;2024-01-27T00:24:40;103100;;;4.40039;100.0
83763;BME280;73753;53.724;0.040;2024-01-27T00:25:41;103100;;;4.33577;100.0
83763;BME280;73753;53.724;0.040;2024-01-27T00:26:43;103100;;;4.34148;100.0
83763;BME280;73753;53.724;0.040;2024-01-27T00:27:45;103100;;;4.36966;100.0
83763;BME280;73753;53.724;0.040;2024-01-27T00:28:46;103100;;;4.3022;100.0
83763;BME280;73753;53.724;0.040;2024-01-27T00:29:48;103100;;;4.28352;100.0
83763;BME280;73753;53.724;0.040;2024-01-27T00:30:50;103100;;;4.32216;100.0
83763;BME280;73753;53.724;0.040;2024-01-27T00:31:51;103100;;;4.30695;100.0
83763;BME280;73753;53.724;0.040;2024-01-27T00:32:53;103100;;;4.34496;100.0
83763;BME280;73753;53.724;0.040;2024-01-27T00:33:54;103100;;;4.27592;100.0
83763;BME280;73753;53.724;0.040;2024-01-27T00:34:56;103100;;;4.32121;100.0
83763;BME280;73753;53.724;0.040;2024-01-27T00:35:57;103100;;;4.34654;100.0
83763;BME280;73753;53.724;0.040;2024-01-27T00:36:59;103100;;;4.32311;100.0
83763;BME280;73753;53.724;0.040;2024-01-27T00:38:01;103100;;;4.35129;100.0
83763;BME280;73753;53.724;0.040;2024-01-27T00:39:02;103100;;;4.33356;100.0
83763;BME280;73753;53.724;0.040;2024-01-27T00:40:04;103100;;;4.30885;100.0
83763;BME280;73753;53.724;0.040;2024-01-27T00:41:08;103100;;;4.35383;100.0
83763;BME280;73753;53.724;0.040;2024-01-27T00:42:10;103100;;;4.34338;100.0
83763;BME280;73753;53.724;0.040;2024-01-27T00:43:11;103100;;;4.2718;100.0
83763;BME280;73753;53.724;0.040;2024-01-27T00:44:13;103100;;;4.26863;100.0
83763;BME280;73753;53.724;0.040;2024-01-27T00:45:14;103100;;;4.26071;100.0
83763;BME280;73753;53.724;0.040;2024-01-27T00:46:16;103100;;;4.25026;100.0
83763;BME280;73753;53.724;0.040;2024-01-27T00:47:17;103100;;;4.23189;100.0
83763;BME280;73753;53.724;0.040;2024-01-27T00:48:19;103100;;;4.21004;100.0
83763;BME280;73753;53.724;0.040;2024-01-27T00:49:20;103100;;;4.26515;100.0
83763;BME280;73753;53.724;0.040;2024-01-27T00:50:22;103100;;;4.22556;100.0
83763;BME280;73753;53.724;0.040;2024-01-27T00:51:24;103100;;;4.24868;100.0
83763;BME280;73753;53.724;0.040;2024-01-27T00:52:25;103100;;;4.2927;100.0
83763;BME280;73753;53.724;0.040;2024-01-27T00:53:27;103100;;;4.31994;100.0
83763;BME280;73753;53.724;0.040;2024-01-27T00:54:29;103100;;;4.30252;100.0
83763;BME280;73753;53.724;0.040;2024-01-27T00:55:30;103100;;;4.29619;100.0
83763;BME280;73753;53.724;0.040;2024-01-27T00:56:32;103100;;;4.24899;100.0
83763;BME280;73753;53.724;0.040;2024-01-27T00:57:35;103100;;;4.24108;100.0
83763;BME280;73753;53.724;0.040;2024-01-27T00:58:37;103100;;;4.26198;100.0
83763;BME280;73753;53.724;0.040;2024-01-27T00:59:39;103100;;;4.25279;100.0
83763;BME280;73753;53.724;0.040;2024-01-27T01:00:40;103100;;;4.27275;100.0
83763;BME280;73753;53.724;0.040;2024-01-27T01:01:42;103100;;;4.31012;100.0
83763;BME280;73753;53.724;0.040;2024-01-27T01:02:43;103100;;;4.33736;100.0
83763;BME280;73753;53.724;0.040;2024-01-27T01:03:45;103100;;;4.33482;100.0
83763;BME280;73753;53.724;0.040;2024-01-27T01:04:46;103100;;;4.37536;100.0
83763;BME280;73753;53.724;0.040;2024-01-27T01:05:48;103100;;;4.33324;100.0
83763;BME280;73753;53.724;0.040;2024-01-27T01:06:50;103100;;;4.306;100.0
83763;BME280;73753;53.724;0.040;2024-01-27T01:07:51;103100;;;4.29809;100.0
83763;BME280;73753;53.724;0.040;2024-01-27T01:08:53;103100;;;4.26451;100.0
83763;BME280;73753;53.724;0.040;2024-01-27T01:09:54;103100;;;4.26641;100.0
83763;BME280;73753;53.724;0.040;2024-01-27T01:10:56;103100;;;4.24709;100.0
83763;BME280;73753;53.724;0.040;2024-01-27T01:11:57;103100;;;4.29302;100.0
83763;BME280;73753;53.724;0.040;2024-01-27T01:12:59;103100;;;4.28858;100.0
83763;BME280;73753;53.724;0.040;2024-01-27T01:14:01;103100;;;4.28605;100.0
83763;BME280;73753;53.724;0.040;2024-01-27T01:15:02;103100;;;4.32722;100.0
83763;BME280;73753;53.724;0.040;2024-01-27T01:16:05;103100;;;4.36143;100.0
83763;BME280;73753;53.724;0.040;2024-01-27T01:17:06;103100;;;4.3836;100.0
83763;BME280;73753;53.724;0.040;2024-01-27T01:18:08;103100;;;4.41464;100.0
83763;BME280;73753;53.724;0.040;2024-01-27T01:19:10;103100;;;4.39405;100.0
83763;BME280;73753;53.724;0.040;2024-01-27T01:20:11;103100;;;4.43142;100.0
83763;BME280;73753;53.724;0.040;2024-01-27T01:21:13;103100;;;4.43174;100.0
83763;BME280;73753;53.724;0.040;2024-01-27T01:22:14;103100;;;4.46848;100.0
83763;BME280;73753;53.724;0.040;2024-01-27T01:23:16;103100;;;4.42826;100.0
83763;BME280;73753;53.724;0.040;2024-01-27T01:24:17;103100;;;4.41527;100.0
83763;BME280;73753;53.724;0.040;2024-01-27T01:25:19;103100;;;4.4159;100.0
83763;BME280;73753;53.724;0.040;2024-01-27T01:26:21;103100;;;4.34306;100.0
83763;BME280;73753;53.724;0.040;2024-01-27T01:27:22;103100;;;4.35985;100.0
83763;BME280;73753;53.724;0.040;2024-01-27T01:28:24;103100;;;4.38265;100.0
83763;BME280;73753;53.724;0.040;2024-01-27T01:29:25;103100;;;4.3931;100.0
83763;BME280;73753;53.724;0.040;2024-01-27T01:30:27;103100;;;4.39025;100.0
83763;BME280;73753;53.724;0.040;2024-01-27T01:31:29;103100;;;4.38772;100.0
83763;BME280;73753;53.724;0.040;2024-01-27T01:32:30;103100;;;4.38708;100.0
83763;BME280;73753;53.724;0.040;2024-01-27T01:33:32;103100;;;4.41147;100.0
83763;BME280;73753;53.724;0.040;2024-01-27T01:34:33;103100;;;4.40957;100.0
83763;BME280;73753;53.724;0.040;2024-01-27T01:35:35;103100;;;4.41717;100.0
83763;BME280;73753;53.724;0.040;2024-01-27T01:36:36;103100;;;4.47101;100.0
83763;BME280;73753;53.724;0.040;2024-01-27T01:37:38;103100;;;4.40577;100.0
83763;BME280;73753;53.724;0.040;2024-01-27T01:38:40;103100;;;4.42256;100.0
83763;BME280;73753;53.724;0.040;2024-01-27T01:39:41;103100;;;4.3798;100.0
83763;BME280;73753;53.724;0.040;2024-01-27T01:40:43;103100;;;4.40197;100.0
83763;BME280;73753;53.724;0.040;2024-01-27T01:41:44;103100;;;4.40355;100.0
83763;BME280;73753;53.724;0.040;2024-01-27T01:42:50;103100;;;4.42382;100.0
83763;BME280;73753;53.724;0.040;2024-01-27T01:43:51;103100;;;4.37727;100.0
83763;BME280;73753;53.724;0.040;2024-01-27T01:44:53;103100;;;4.36935;100.0
83763;BME280;73753;53.724;0.040;2024-01-27T01:45:54;103100;;;4.39405;100.0
83763;BME280;73753;53.724;0.040;2024-01-27T01:46:56;103100;;;4.42224;100.0
83763;BME280;73753;53.724;0.040;2024-01-27T01:47:58;103100;;;4.44568;100.0
83763;BME280;73753;53.724;0.040;2024-01-27T01:49:00;103100;;;4.40387;100.0
83763;BME280;73753;53.724;0.040;2024-01-27T01:50:01;103100;;;4.41464;100.0
83763;BME280;73753;53.724;0.040;2024-01-27T01:51:03;103100;;;4.44029;100.0
83763;BME280;73753;53.724;0.040;2024-01-27T01:52:05;103100;;;4.42382;100.0
83763;BME280;73753;53.724;0.040;2024-01-27T01:53:07;103100;;;4.4045;100.0
83763;BME280;73753;53.724;0.040;2024-01-27T01:54:09;103100;;;4.41242;100.0
83763;BME280;73753;53.724;0.040;2024-01-27T01:55:11;103100;;;4.40957;100.0
83763;BME280;73753;53.724;0.040;2024-01-27T01:56:13;103100;;;4.42319;100.0
83763;BME280;73753;53.724;0.040;2024-01-27T01:57:15;103100;;;4.39532;100.0
83763;BME280;73753;53.724;0.040;2024-01-27T01:58:17;103100;;;4.36903;100.0
83763;BME280;73753;53.724;0.040;2024-01-27T01:59:18;103100;;;4.34338;100.0
83763;BME280;73753;53.724;0.040;2024-01-27T02:00:20;103100;;;4.30284;100.0
83763;BME280;73753;53.724;0.040;2024-01-27T02:01:21;103100;;;4.27782;100.0
83763;BME280;73753;53.724;0.040;2024-01-27T02:02:23;103100;;;4.3079;100.0
83763;BME280;73753;53.724;0.040;2024-01-27T02:03:24;103100;;;4.24614;100.0
83763;BME280;73753;53.724;0.040;2024-01-27T02:04:26;103100;;;4.27211;100.0
83763;BME280;73753;53.724;0.040;2024-01-27T02:05:28;103100;;;4.26483;100.0
83763;BME280;73753;53.724;0.040;2024-01-27T02:06:29;103100;;;4.23918;100.0
83763;BME280;73753;53.724;0.040;2024-01-27T02:07:31;103100;;;4.26673;100.0
83763;BME280;73753;53.724;0.040;2024-01-27T02:08:32;103100;;;4.2661;100.0
83763;BME280;73753;53.724;0.040;2024-01-27T02:09:34;103100;;;4.27813;100.0
83763;BME280;73753;53.724;0.040;2024-01-27T02:10:36;103100;;;4.3155;100.0
83763;BME280;73753;53.724;0.040;2024-01-27T02:11:37;103100;;;4.33609;100.0
83763;BME280;73753;53.724;0.040;2024-01-27T02:12:39;103100;;;4.29809;100.0
83763;BME280;73753;53.724;0.040;2024-01-27T02:13:40;103100;;;4.25153;100.0
83763;BME280;73753;53.724;0.040;2024-01-27T02:14:42;103100;;;4.2718;100.0
83763;BME280;73753;53.724;0.040;2024-01-27T02:15:44;103100;;;4.2661;100.0
83763;BME280;73753;53.724;0.040;2024-01-27T02:16:45;103100;;;4.28605;100.0
83763;BME280;73753;53.724;0.040;2024-01-27T02:17:47;103100;;;4.30062;100.0
83763;BME280;73753;53.724;0.040;2024-01-27T02:18:48;103100;;;4.30189;100.0
83763;BME280;73753;53.724;0.040;2024-01-27T02:19:50;103100;;;4.30315;100.0
83763;BME280;73753;53.724;0.040;2024-01-27T02:20:51;103100;;;4.33134;100.0
83763;BME280;73753;53.724;0.040;2024-01-27T02:21:53;103100;;;4.31392;100.0
83763;BME280;73753;53.724;0.040;2024-01-27T02:22:54;103100;;;4.34971;100.0
83763;BME280;73753;53.724;0.040;2024-01-27T02:23:56;103100;;;4.36713;100.0
83763;BME280;73753;53.724;0.040;2024-01-27T02:24:58;103100;;;4.42351;100.0
83763;BME280;73753;53.724;0.040;2024-01-27T02:25:59;103100;;;4.41622;100.0
83763;BME280;73753;53.724;0.040;2024-01-27T02:27:01;103100;;;4.38012;100.0
83763;BME280;73753;53.724;0.040;2024-01-27T02:28:03;103100;;;4.35636;100.0
83763;BME280;73753;53.724;0.040;2024-01-27T02:29:04;103100;;;4.32026;100.0
83763;BME280;73753;53.724;0.040;2024-01-27T02:30:06;103100;;;4.30474;100.0
83763;BME280;73753;53.724;0.040;2024-01-27T02:31:08;103100;;;4.32026;100.0
83763;BME280;73753;53.724;0.040;2024-01-27T02:32:09;103100;;;4.33768;100.0
83763;BME280;73753;53.724;0.040;2024-01-27T02:33:11;103100;;;4.26831;100.0
83763;BME280;73753;53.724;0.040;2024-01-27T02:34:13;103100;;;4.31994;100.0
83763;BME280;73753;53.724;0.040;2024-01-27T02:35:14;103100;;;4.33609;100.0
83763;BME280;73753;53.724;0.040;2024-01-27T02:36:16;103100;;;4.35193;100.0
83763;BME280;73753;53.724;0.040;2024-01-27T02:37:18;103100;;;4.37441;100.0
83763;BME280;73753;53.724;0.040;2024-01-27T02:38:19;103100;;;4.38138;100.0
83763;BME280;73753;53.724;0.040;2024-01-27T02:39:21;103100;;;4.34559;100.0
83763;BME280;73753;53.724;0.040;2024-01-27T02:40:23;103100;;;4.4007;100.0
83763;BME280;73753;53.724;0.040;2024-01-27T02:41:24;103100;;;4.44124;100.0
83763;BME280;73753;53.724;0.040;2024-01-27T02:42:26;103100;;;4.42731;100.0
83763;BME280;73753;53.724;0.040;2024-01-27T02:43:28;103100;;;4.42224;100.0
83763;BME280;73753;53.724;0.040;2024-01-27T02:44:29;103100;;;4.40514;100.0
83763;BME280;73753;53.724;0.040;2024-01-27T02:45:31;103100;;;4.35446;100.0
83763;BME280;73753;53.724;0.040;2024-01-27T02:46:32;103200;;;4.376;100.0
83763;BME280;73753;53.724;0.040;2024-01-27T02:47:34;103200;;;4.34053;100.0
83763;BME280;73753;53.724;0.040;2024-01-27T02:48:35;103200;;;4.32691;100.0
83763;BME280;73753;53.724;0.040;2024-01-27T02:49:37;103200;;;4.33894;100.0
83763;BME280;73753;53.724;0.040;2024-01-27T02:50:38;103200;;;4.34464;100.0
83763;BME280;73753;53.724;0.040;2024-01-27T02:51:40;103200;;;4.35731;100.0
83763;BME280;73753;53.724;0.040;2024-01-27T02:52:41;103200;;;4.34021;100.0
83763;BME280;73753;53.724;0.040;2024-01-27T02:53:43;103200;;;4.36111;100.0
83763;BME280;73753;53.724;0.040;2024-01-27T02:54:44;103200;;;4.38202;100.0
83763;BME280;73753;53.724;0.040;2024-01-27T02:55:46;103200;;;4.40387;100.0
83763;BME280;73753;53.724;0.040;2024-01-27T02:56:48;103200;;;4.39437;100.0
83763;BME280;73753;53.724;0.040;2024-01-27T02:57:49;103200;;;4.42129;100.0
83763;BME280;73753;53.724;0.040;2024-01-27T02:58:51;103100;;;4.38645;100.0
83763;BME280;73753;53.724;0.040;2024-01-27T02:59:52;103100;;;4.42699;100.0
83763;BME280;73753;53.724;0.040;2024-01-27T03:00:54;103100;;;4.42319;100.0
83763;BME280;73753;53.724;0.040;2024-01-27T03:01:55;103100;;;4.39722;100.0
83763;BME280;73753;53.724;0.040;2024-01-27T03:02:57;103100;;;4.39468;100.0
83763;BME280;73753;53.724;0.040;2024-01-27T03:03:58;103100;;;4.38898;100.0
83763;BME280;73753;53.724;0.040;2024-01-27T03:05:00;103100;;;4.36365;100.0
83763;BME280;73753;53.724;0.040;2024-01-27T03:06:02;103100;;;4.36143;100.0
83763;BME280;73753;53.724;0.040;2024-01-27T03:07:03;103100;;;4.35573;100.0
83763;BME280;73753;53.724;0.040;2024-01-27T03:08:05;103100;;;4.34591;100.0
83763;BME280;73753;53.724;0.040;2024-01-27T03:09:07;103100;;;4.36681;100.0
83763;BME280;73753;53.724;0.040;2024-01-27T03:10:09;103100;;;4.3627;100.0
83763;BME280;73753;53.724;0.040;2024-01-27T03:11:10;103100;;;4.38392;100.0
83763;BME280;73753;53.724;0.040;2024-01-27T03:12:12;103100;;;4.41242;100.0
83763;BME280;73753;53.724;0.040;2024-01-27T03:13:14;103100;;;4.40767;100.0
83763;BME280;73753;53.724;0.040;2024-01-27T03:14:15;103100;;;4.41464;100.0
83763;BME280;73753;53.724;0.040;2024-01-27T03:15:17;103100;;;4.40989;100.0
83763;BME280;73753;53.724;0.040;2024-01-27T03:16:18;103200;;;4.38265;100.0
83763;BME280;73753;53.724;0.040;2024-01-27T03:17:20;103100;;;4.33768;100.0
83763;BME280;73753;53.724;0.040;2024-01-27T03:18:21;103100;;;4.37378;100.0
83763;BME280;73753;53.724;0.040;2024-01-27T03:19:23;103100;;;4.32596;100.0
83763;BME280;73753;53.724;0.040;2024-01-27T03:20:24;103100;;;4.37061;100.0
83763;BME280;73753;53.724;0.040;2024-01-27T03:21:26;103100;;;4.34623;100.0
83763;BME280;73753;53.724;0.040;2024-01-27T03:22:28;103100;;;4.36238;100.0
83763;BME280;73753;53.724;0.040;2024-01-27T03:23:29;103100;;;4.34274;100.0
83763;BME280;73753;53.724;0.040;2024-01-27T03:24:31;103100;;;4.36301;100.0
83763;BME280;73753;53.724;0.040;2024-01-27T03:25:33;103100;;;4.37251;100.0
83763;BME280;73753;53.724;0.040;2024-01-27T03:26:34;103100;;;4.35953;100.0
83763;BME280;73753;53.724;0.040;2024-01-27T03:27:36;103100;;;4.32057;100.0
83763;BME280;73753;53.724;0.040;2024-01-27T03:28:38;103100;;;4.27306;100.0
83763;BME280;73753;53.724;0.040;2024-01-27T03:29:39;103100;;;4.24298;100.0
83763;BME280;73753;53.724;0.040;2024-01-27T03:30:41;103100;;;4.22777;100.0
83763;BME280;73753;53.724;0.040;2024-01-27T03:31:42;103200;;;4.24583;100.0
83763;BME280;73753;53.724;0.040;2024-01-27T03:32:44;103200;;;4.23664;100.0
83763;BME280;73753;53.724;0.040;2024-01-27T03:33:45;103200;;;4.25406;100.0
83763;BME280;73753;53.724;0.040;2024-01-27T03:34:47;103200;;;4.2794;100.0
83763;BME280;73753;53.724;0.040;2024-01-27T03:35:48;103200;;;4.31646;100.0
83763;BME280;73753;53.724;0.040;2024-01-27T03:36:50;103200;;;4.35668;100.0
83763;BME280;73753;53.724;0.040;2024-01-27T03:37:52;103200;;;4.33039;100.0
83763;BME280;73753;53.724;0.040;2024-01-27T03:38:54;103200;;;4.34433;100.0
83763;BME280;73753;53.724;0.040;2024-01-27T03:39:55;103200;;;4.34306;100.0
83763;BME280;73753;53.724;0.040;2024-01-27T03:40:57;103200;;;4.33863;100.0
83763;BME280;73753;53.724;0.040;2024-01-27T03:41:58;103200;;;4.2832;100.0
83763;BME280;73753;53.724;0.040;2024-01-27T03:43:00;103200;;;4.27433;100.0
83763;BME280;73753;53.724;0.040;2024-01-27T03:44:01;103200;;;4.31709;100.0
83763;BME280;73753;53.724;0.040;2024-01-27T03:45:03;103200;;;4.29619;100.0
83763;BME280;73753;53.724;0.040;2024-01-27T03:46:05;103200;;;4.33641;100.0
83763;BME280;73753;53.724;0.040;2024-01-27T03:47:06;103200;;;4.2965;100.0
83763;BME280;73753;53.724;0.040;2024-01-27T03:48:08;103200;;;4.30537;100.0
83763;BME280;73753;53.724;0.040;2024-01-27T03:49:09;103200;;;4.33134;100.0
83763;BME280;73753;53.724;0.040;2024-01-27T03:50:11;103200;;;4.3741;100.0
83763;BME280;73753;53.724;0.040;2024-01-27T03:51:13;103200;;;4.33546;100.0
83763;BME280;73753;53.724;0.040;2024-01-27T03:52:15;103200;;;4.34559;100.0
83763;BME280;73753;53.724;0.040;2024-01-27T03:53:16;103200;;;4.3779;100.0
83763;BME280;73753;53.724;0.040;2024-01-27T03:54:18;103200;;;4.37885;100.0
83763;BME280;73753;53.724;0.040;2024-01-27T03:55:20;103200;;;4.39342;100.0
83763;BME280;73753;53.724;0.040;2024-01-27T03:56:22;103200;;;4.38835;100.0
83763;BME280;73753;53.724;0.040;2024-01-27T03:57:23;103200;;;4.41337;100.0
83763;BME280;73753;53.724;0.040;2024-01-27T03:58:25;103200;;;4.38993;100.0
83763;BME280;73753;53.724;0.040;2024-01-27T03:59:26;103200;;;4.37125;100.0
83763;BME280;73753;53.724;0.040;2024-01-27T04:00:28;103200;;;4.38518;100.0
83763;BME280;73753;53.724;0.040;2024-01-27T04:01:29;103200;;;4.35731;100.0
83763;BME280;73753;53.724;0.040;2024-01-27T04:02:31;103200;;;4.33482;100.0
83763;BME280;73753;53.724;0.040;2024-01-27T04:03:32;103200;;;4.35541;100.0
83763;BME280;73753;53.724;0.040;2024-01-27T04:04:34;103200;;;4.34306;100.0
83763;BME280;73753;53.724;0.040;2024-01-27T04:05:36;103200;;;4.33863;100.0
83763;BME280;73753;53.724;0.040;2024-01-27T04:06:37;103200;;;4.37283;100.0
83763;BME280;73753;53.724;0.040;2024-01-27T04:07:39;103200;;;4.39849;100.0
83763;BME280;73753;53.724;0.040;2024-01-27T04:08:41;103200;;;4.40704;100.0
83763;BME280;73753;53.724;0.040;2024-01-27T04:09:42;103200;;;4.39785;100.0
83763;BME280;73753;53.724;0.040;2024-01-27T04:10:44;103200;;;4.41939;100.0
83763;BME280;73753;53.724;0.040;2024-01-27T04:11:46;103200;;;4.42066;100.0
83763;BME280;73753;53.724;0.040;2024-01-27T04:12:47;103200;;;4.46816;100.0
83763;BME280;73753;53.724;0.040;2024-01-27T04:13:49;103200;;;4.48463;100.0
83763;BME280;73753;53.724;0.040;2024-01-27T04:14:50;103200;;;4.45423;100.0
83763;BME280;73753;53.724;0.040;2024-01-27T04:15:52;103200;;;4.46405;100.0
83763;BME280;73753;53.724;0.040;2024-01-27T04:16:54;103200;;;4.49857;100.0
83763;BME280;73753;53.724;0.040;2024-01-27T04:17:55;103200;;;4.4745;100.0
83763;BME280;73753;53.724;0.040;2024-01-27T04:18:57;103200;;;4.48558;100.0
83763;BME280;73753;53.724;0.040;2024-01-27T04:19:58;103200;;;4.48527;100.0
83763;BME280;73753;53.724;0.040;2024-01-27T04:21:00;103200;;;4.47671;100.0
83763;BME280;73753;53.724;0.040;2024-01-27T04:22:02;103200;;;4.48748;100.0
83763;BME280;73753;53.724;0.040;2024-01-27T04:23:03;103200;;;4.44378;100.0
83763;BME280;73753;53.724;0.040;2024-01-27T04:24:05;103200;;;4.42857;100.0
83763;BME280;73753;53.724;0.040;2024-01-27T04:25:07;103200;;;4.43586;100.0
83763;BME280;73753;53.724;0.040;2024-01-27T04:26:08;103200;;;4.46056;100.0
83763;BME280;73753;53.724;0.040;2024-01-27T04:27:10;103200;;;4.49857;100.0
83763;BME280;73753;53.724;0.040;2024-01-27T04:28:11;103200;;;4.4764;100.0
83763;BME280;73753;53.724;0.040;2024-01-27T04:29:14;103200;;;4.50459;100.0
83763;BME280;73753;53.724;0.040;2024-01-27T04:30:15;103200;;;4.50744;100.0
83763;BME280;73753;53.724;0.040;2024-01-27T04:31:17;103200;;;4.49508;100.0
83763;BME280;73753;53.724;0.040;2024-01-27T04:32:18;103200;;;4.54671;100.0
83763;BME280;73753;53.724;0.040;2024-01-27T04:33:20;103200;;;4.56571;100.0
83763;BME280;73753;53.724;0.040;2024-01-27T04:34:21;103200;;;4.56033;100.0
83763;BME280;73753;53.724;0.040;2024-01-27T04:35:23;103200;;;4.55526;100.0
83763;BME280;73753;53.724;0.040;2024-01-27T04:36:26;103200;;;4.58598;100.0
83763;BME280;73753;53.724;0.040;2024-01-27T04:37:27;103200;;;4.63191;100.0
83763;BME280;73753;53.724;0.040;2024-01-27T04:38:29;103200;;;4.61797;100.0
83763;BME280;73753;53.724;0.040;2024-01-27T04:39:31;103200;;;4.59897;100.0
83763;BME280;73753;53.724;0.040;2024-01-27T04:40:32;103200;;;4.57838;100.0
83763;BME280;73753;53.724;0.040;2024-01-27T04:41:34;103200;;;4.62621;100.0
83763;BME280;73753;53.724;0.040;2024-01-27T04:42:37;103200;;;4.64204;100.0
83763;BME280;73753;53.724;0.040;2024-01-27T04:43:39;103200;;;4.64838;100.0
83763;BME280;73753;53.724;0.040;2024-01-27T04:44:40;103200;;;4.64363;100.0
83763;BME280;73753;53.724;0.040;2024-01-27T04:45:42;103200;;;4.63254;100.0
83763;BME280;73753;53.724;0.040;2024-01-27T04:46:44;103200;;;4.66041;100.0
83763;BME280;73753;53.724;0.040;2024-01-27T04:47:45;103200;;;4.64553;100.0
83763;BME280;73753;53.724;0.040;2024-01-27T04:48:47;103200;;;4.64363;100.0
83763;BME280;73753;53.724;0.040;2024-01-27T04:49:48;103200;;;4.65915;100.0
83763;BME280;73753;53.724;0.040;2024-01-27T04:50:50;103200;;;4.63001;100.0
83763;BME280;73753;53.724;0.040;2024-01-27T04:51:52;103200;;;4.63317;100.0
83763;BME280;73753;53.724;0.040;2024-01-27T04:52:53;103200;;;4.63507;100.0
83763;BME280;73753;53.724;0.040;2024-01-27T04:53:55;103200;;;4.63698;100.0
83763;BME280;73753;53.724;0.040;2024-01-27T04:54:56;103200;;;4.63381;100.0
83763;BME280;73753;53.724;0.040;2024-01-27T04:55:58;103200;;;4.63032;100.0
83763;BME280;73753;53.724;0.040;2024-01-27T04:56:59;103200;;;4.64426;100.0
83763;BME280;73753;53.724;0.040;2024-01-27T04:58:01;103200;;;4.65154;100.0
83763;BME280;73753;53.724;0.040;2024-01-27T04:59:03;103200;;;4.67055;100.0
83763;BME280;73753;53.724;0.040;2024-01-27T05:00:04;103200;;;4.65313;100.0
83763;BME280;73753;53.724;0.040;2024-01-27T05:01:06;103200;;;4.68227;100.0
83763;BME280;73753;53.724;0.040;2024-01-27T05:02:08;103200;;;4.72217;100.0
83763;BME280;73753;53.724;0.040;2024-01-27T05:03:09;103200;;;4.73706;100.0
83763;BME280;73753;53.724;0.040;2024-01-27T05:04:11;103200;;;4.75923;100.0
83763;BME280;73753;53.724;0.040;2024-01-27T05:05:13;103200;;;4.76018;100.0
83763;BME280;73753;53.724;0.040;2024-01-27T05:06:14;103200;;;4.74244;100.0
83763;BME280;73753;53.724;0.040;2024-01-27T05:07:16;103200;;;4.71457;100.0
83763;BME280;73753;53.724;0.040;2024-01-27T05:08:17;103200;;;4.70824;100.0
83763;BME280;73753;53.724;0.040;2024-01-27T05:09:19;103200;;;4.73738;100.0
83763;BME280;73753;53.724;0.040;2024-01-27T05:10:20;103200;;;4.73421;100.0
83763;BME280;73753;53.724;0.040;2024-01-27T05:11:28;103200;;;4.73643;100.0
83763;BME280;73753;53.724;0.040;2024-01-27T05:12:30;103200;;;4.77221;100.0
83763;BME280;73753;53.724;0.040;2024-01-27T05:13:32;103200;;;4.789;100.0
83763;BME280;73753;53.724;0.040;2024-01-27T05:14:34;103200;;;4.75701;100.0
83763;BME280;73753;53.724;0.040;2024-01-27T05:15:35;103200;;;4.7947;100.0
83763;BME280;73753;53.724;0.040;2024-01-27T05:16:37;103200;;;4.75099;100.0
83763;BME280;73753;53.724;0.040;2024-01-27T05:17:39;103200;;;4.79787;100.0
83763;BME280;73753;53.724;0.040;2024-01-27T05:18:40;103200;;;4.79597;100.0
83763;BME280;73753;53.724;0.040;2024-01-27T05:19:42;103200;;;4.80294;100.0
83763;BME280;73753;53.724;0.040;2024-01-27T05:20:43;103200;;;4.81561;100.0
83763;BME280;73753;53.724;0.040;2024-01-27T05:21:45;103200;;;4.83207;100.0
83763;BME280;73753;53.724;0.040;2024-01-27T05:22:46;103200;;;4.80705;100.0
83763;BME280;73753;53.724;0.040;2024-01-27T05:23:48;103200;;;4.82511;100.0
83763;BME280;73753;53.724;0.040;2024-01-27T05:24:49;103200;;;4.8042;100.0
83763;BME280;73753;53.724;0.040;2024-01-27T05:25:51;103200;;;4.8118;100.0
83763;BME280;73753;53.724;0.040;2024-01-27T05:26:52;103200;;;4.7909;100.0